Time;durP1;ratioP1;P1;durP2;ratioP2;P2;SDS_P1;SDS_P2;PMS_P1;PMS_P2;Temp;Humidity;BMP_temperature;BMP_pressure;BME280_temperature;BME280_humidity;BME280_pressure;Samples;Min_cycle;Max_cycle;Signal;HPM_P1;HPM_P2
2022/01/27 00:00:58;;;;;;;18.30;7.20;;;3.50;99.90;;;;;;4974412;28;20444;-67
2022/01/27 00:05:53;;;;;;;21.40;11.10;;;3.60;99.90;;;;;;4974622;28;20409;-67
2022/01/27 00:08:29;;;;;;;22.63;8.97;;;3.50;99.90;;;;;;4974136;28;20416;-67
2022/01/27 00:11:00;;;;;;;11.60;7.60;;;3.50;99.90;;;;;;4974479;28;20460;-67
2022/01/27 00:13:30;;;;;;;10.37;6.63;;;3.60;99.90;;;;;;4974127;28;20397;-67
2022/01/27 00:16:15;;;;;;;16.37;6.30;;;3.50;99.90;;;;;;4974388;28;20463;-67
2022/01/27 00:18:43;;;;;;;7.33;5.57;;;3.50;99.90;;;;;;4974123;28;20433;-67
2022/01/27 00:21:09;;;;;;;12.20;7.00;;;3.50;99.90;;;;;;4973977;28;20504;-67
2022/01/27 00:23:34;;;;;;;12.40;7.90;;;3.50;99.90;;;;;;4974346;28;20492;-67
2022/01/27 00:26:00;;;;;;;9.30;5.90;;;3.50;99.90;;;;;;4973908;28;20423;-67
2022/01/27 00:28:26;;;;;;;12.70;7.17;;;3.50;99.90;;;;;;4973843;28;20174;-67
2022/01/27 00:30:51;;;;;;;14.10;7.23;;;3.50;99.90;;;;;;4973865;28;20463;-67
2022/01/27 00:33:17;;;;;;;17.30;7.67;;;3.40;99.90;;;;;;4973755;28;20181;-67
2022/01/27 00:35:42;;;;;;;11.43;6.93;;;3.50;99.90;;;;;;4973690;28;20180;-66
2022/01/27 00:38:07;;;;;;;19.70;6.80;;;3.50;99.90;;;;;;4973623;28;20170;-67
2022/01/27 00:40:33;;;;;;;14.67;5.27;;;3.50;99.90;;;;;;4973556;28;20277;-67
2022/01/27 00:42:58;;;;;;;11.23;7.10;;;3.50;99.90;;;;;;4973649;28;20260;-67
2022/01/27 00:45:25;;;;;;;16.93;6.77;;;3.50;99.90;;;;;;4973813;28;20180;-68
2022/01/27 00:47:51;;;;;;;8.27;6.67;;;3.50;99.90;;;;;;4973605;28;20174;-67
2022/01/27 00:50:18;;;;;;;17.40;7.13;;;3.50;99.90;;;;;;4973326;28;20429;-68
2022/01/27 00:52:50;;;;;;;17.50;7.97;;;3.50;99.90;;;;;;4973723;28;20465;-68
2022/01/27 00:55:16;;;;;;;18.20;6.00;;;3.50;99.90;;;;;;4990477;23;20506;-74
2022/01/27 01:00:17;;;;;;;8.00;5.63;;;3.40;99.90;;;;;;4993130;28;20412;-75
2022/01/27 01:05:44;;;;;;;13.27;7.10;;;3.60;99.90;;;;;;4992522;28;21024;-74
2022/01/27 01:16:03;;;;;;;11.70;8.07;;;3.60;99.90;;;;;;4992816;28;20191;-75
2022/01/27 01:18:46;;;;;;;11.00;5.00;;;3.50;99.90;;;;;;4992729;28;20483;-74
2022/01/27 01:21:34;;;;;;;10.40;6.30;;;3.50;99.90;;;;;;4991169;28;20444;-74
2022/01/27 01:29:51;;;;;;;6.20;4.17;;;3.60;99.90;;;;;;4992308;28;20906;-74
2022/01/27 01:32:27;;;;;;;14.03;5.57;;;3.50;99.90;;;;;;4992407;28;20463;-74
2022/01/27 01:34:54;;;;;;;7.80;5.77;;;3.60;99.90;;;;;;4992610;28;20434;-74
2022/01/27 01:37:19;;;;;;;12.33;6.17;;;3.60;99.90;;;;;;4992672;28;20416;-74
2022/01/27 01:39:45;;;;;;;13.23;5.73;;;3.60;99.90;;;;;;4992434;28;20929;-74
2022/01/27 01:42:11;;;;;;;6.50;4.13;;;3.60;99.90;;;;;;4992499;28;20516;-75
2022/01/27 01:44:38;;;;;;;9.63;5.90;;;3.60;99.90;;;;;;4992727;28;20431;-74
2022/01/27 01:47:04;;;;;;;8.30;5.33;;;3.60;99.90;;;;;;4992728;28;20478;-74
2022/01/27 01:49:31;;;;;;;15.33;5.63;;;3.60;99.90;;;;;;4992855;28;20448;-75
2022/01/27 01:51:59;;;;;;;9.83;5.73;;;3.60;99.90;;;;;;4992962;28;20448;-75
2022/01/27 01:54:25;;;;;;;10.70;6.77;;;3.60;99.90;;;;;;5002134;28;20442;-75
2022/01/27 01:56:52;;;;;;;12.30;4.97;;;3.60;99.90;;;;;;5008956;28;20403;-75
2022/01/27 01:59:18;;;;;;;12.40;4.43;;;3.60;99.90;;;;;;5008979;28;20460;-75
2022/01/27 02:01:45;;;;;;;9.87;6.30;;;3.70;99.90;;;;;;4998743;28;20404;-75
2022/01/27 02:04:11;;;;;;;8.73;6.13;;;3.70;99.90;;;;;;4993740;28;20432;-75
2022/01/27 02:06:45;;;;;;;20.70;7.37;;;3.70;99.90;;;;;;4992774;28;20511;-75
2022/01/27 02:20:09;;;;;;;14.30;5.77;;;3.70;99.90;;;;;;4996268;28;20399;-74
2022/01/27 02:22:35;;;;;;;4.57;4.17;;;3.70;99.90;;;;;;4997003;28;20408;-75
2022/01/27 02:25:00;;;;;;;7.70;3.90;;;3.70;99.90;;;;;;4997915;28;20918;-74
2022/01/27 02:27:26;;;;;;;6.80;4.40;;;3.80;99.90;;;;;;4997394;28;20653;-75
2022/01/27 02:29:51;;;;;;;10.23;6.43;;;3.80;99.90;;;;;;4996745;28;20211;-75
2022/01/27 02:32:19;;;;;;;7.43;4.80;;;3.80;99.90;;;;;;4995869;28;20647;-75
2022/01/27 02:34:45;;;;;;;12.83;7.10;;;3.70;99.90;;;;;;4995975;28;20208;-75
2022/01/27 02:37:11;;;;;;;11.60;4.90;;;3.70;99.90;;;;;;4995951;28;20447;-75
2022/01/27 02:39:37;;;;;;;11.80;6.67;;;3.80;99.90;;;;;;4995807;28;20447;-75
2022/01/27 02:42:21;;;;;;;12.60;6.93;;;3.80;99.90;;;;;;4995691;28;20408;-75
2022/01/27 02:44:51;;;;;;;11.10;6.07;;;3.80;99.90;;;;;;4995780;28;20428;-76
2022/01/27 02:47:17;;;;;;;8.47;4.50;;;3.80;99.90;;;;;;5010848;28;20992;-76
2022/01/27 02:49:43;;;;;;;7.27;4.70;;;3.80;99.90;;;;;;4994623;28;20412;-76
2022/01/27 02:52:09;;;;;;;9.23;5.43;;;3.80;99.90;;;;;;4995464;28;20470;-75
2022/01/27 02:54:35;;;;;;;8.90;6.40;;;3.80;99.90;;;;;;4995594;28;20446;-74
2022/01/27 02:57:01;;;;;;;6.70;4.50;;;3.80;99.90;;;;;;4995556;28;20932;-74
2022/01/27 02:59:27;;;;;;;7.80;6.87;;;3.80;99.90;;;;;;4995364;28;20400;-73
2022/01/27 03:01:52;;;;;;;8.27;6.40;;;3.80;99.90;;;;;;4995288;28;20411;-74
2022/01/27 03:04:19;;;;;;;11.13;6.60;;;3.80;99.90;;;;;;4995396;28;20280;-77
2022/01/27 03:06:46;;;;;;;11.20;4.07;;;3.80;99.90;;;;;;4995262;28;20180;-75
2022/01/27 03:09:12;;;;;;;7.40;4.57;;;3.90;99.90;;;;;;4995288;28;20400;-75
2022/01/27 03:11:43;;;;;;;13.70;5.20;;;3.90;99.90;;;;;;4995352;28;20455;-76
2022/01/27 03:14:08;;;;;;;6.37;3.47;;;3.90;99.90;;;;;;4995217;28;20416;-77
2022/01/27 03:16:34;;;;;;;5.93;4.93;;;3.90;99.90;;;;;;4995329;28;20492;-76
2022/01/27 03:19:00;;;;;;;7.77;5.60;;;3.90;99.90;;;;;;4995015;28;20235;-76
2022/01/27 03:21:25;;;;;;;12.07;5.00;;;3.90;99.90;;;;;;4995020;28;20719;-75
2022/01/27 03:23:51;;;;;;;9.50;5.80;;;3.90;99.90;;;;;;4994865;28;20232;-76
2022/01/27 03:26:16;;;;;;;3.90;3.20;;;3.90;99.90;;;;;;5010051;28;20267;-76
2022/01/27 03:28:42;;;;;;;7.07;5.27;;;3.90;99.90;;;;;;4994363;28;20669;-75
2022/01/27 03:31:07;;;;;;;11.13;5.67;;;3.90;99.90;;;;;;4993575;28;20204;-75
2022/01/27 03:33:33;;;;;;;11.53;5.80;;;3.90;99.90;;;;;;4994678;28;20169;-76
2022/01/27 03:35:58;;;;;;;10.67;5.53;;;4.00;99.90;;;;;;4994697;28;20814;-75
2022/01/27 03:38:24;;;;;;;8.00;5.50;;;4.00;99.90;;;;;;4994702;28;20203;-75
2022/01/27 03:40:49;;;;;;;12.40;6.60;;;4.00;99.90;;;;;;4994697;28;20717;-75
2022/01/27 03:43:15;;;;;;;9.43;6.67;;;4.00;99.90;;;;;;4994667;28;20176;-75
2022/01/27 03:45:40;;;;;;;7.60;5.23;;;4.00;99.90;;;;;;5009734;28;20299;-75
2022/01/27 03:48:06;;;;;;;6.80;4.20;;;4.00;99.90;;;;;;4994564;28;20192;-75
2022/01/27 03:50:32;;;;;;;7.43;6.70;;;4.00;99.90;;;;;;4994509;28;20177;-75
2022/01/27 03:52:57;;;;;;;7.97;7.27;;;4.00;99.90;;;;;;4994373;28;21107;-75
2022/01/27 03:55:23;;;;;;;10.63;6.30;;;4.00;99.90;;;;;;4994319;28;20455;-75
2022/01/27 03:57:49;;;;;;;17.33;5.53;;;4.00;99.90;;;;;;4994366;28;20539;-75
2022/01/27 04:00:15;;;;;;;9.20;4.93;;;4.00;99.90;;;;;;4994354;28;20412;-75
2022/01/27 04:02:52;;;;;;;9.23;4.27;;;4.10;99.90;;;;;;4994209;28;20176;-75
2022/01/27 04:05:19;;;;;;;11.70;5.27;;;4.10;99.90;;;;;;4994282;28;20431;-75
2022/01/27 04:07:45;;;;;;;7.87;5.00;;;4.00;99.90;;;;;;4994175;28;20416;-75
2022/01/27 04:10:10;;;;;;;12.03;4.73;;;4.10;99.90;;;;;;4994217;28;20404;-75
2022/01/27 04:12:36;;;;;;;8.20;5.57;;;4.10;99.90;;;;;;4993976;28;20236;-75
2022/01/27 04:15:02;;;;;;;6.37;4.57;;;4.10;99.90;;;;;;4994083;28;20212;-75
2022/01/27 04:17:28;;;;;;;5.87;5.07;;;4.10;99.90;;;;;;4994188;28;20758;-76
2022/01/27 04:19:53;;;;;;;11.17;4.47;;;4.10;99.90;;;;;;4993728;28;20454;-75
2022/01/27 04:22:18;;;;;;;5.60;3.80;;;4.10;99.90;;;;;;4994040;28;20588;-75
2022/01/27 04:24:44;;;;;;;7.87;5.13;;;4.10;99.90;;;;;;4994158;28;20288;-75
2022/01/27 04:27:17;;;;;;;7.63;4.70;;;4.10;99.90;;;;;;4994038;28;20188;-75
2022/01/27 04:29:42;;;;;;;8.50;4.93;;;4.10;99.90;;;;;;4993765;28;20169;-75
2022/01/27 04:32:10;;;;;;;5.47;4.30;;;4.10;99.90;;;;;;4993627;28;20448;-75
2022/01/27 04:34:39;;;;;;;5.80;4.00;;;4.20;99.90;;;;;;4993574;28;20205;-75
2022/01/27 04:37:05;;;;;;;8.97;5.60;;;4.20;99.90;;;;;;4993777;28;20400;-75
2022/01/27 04:39:45;;;;;;;10.87;6.97;;;4.20;99.90;;;;;;4993278;28;20539;-76
2022/01/27 04:42:23;;;;;;;6.50;2.57;;;4.20;99.90;;;;;;4993306;28;20490;-74
2022/01/27 04:44:56;;;;;;;6.73;4.53;;;4.20;99.90;;;;;;4993471;28;20423;-74
2022/01/27 04:47:29;;;;;;;6.40;3.90;;;4.30;99.90;;;;;;4993839;28;20412;-74
2022/01/27 04:49:56;;;;;;;5.87;3.83;;;4.30;99.90;;;;;;4993333;28;20459;-75
2022/01/27 04:52:22;;;;;;;5.23;3.60;;;4.30;99.90;;;;;;4993327;28;20614;-75
2022/01/27 04:57:19;;;;;;;7.47;4.20;;;4.30;99.90;;;;;;4993334;28;20404;-75
2022/01/27 04:59:45;;;;;;;6.73;4.07;;;4.30;99.90;;;;;;4993130;28;20491;-75
2022/01/27 05:02:19;;;;;;;5.40;4.67;;;4.30;99.90;;;;;;4993506;28;20610;-75
2022/01/27 05:04:49;;;;;;;4.10;3.70;;;4.30;99.90;;;;;;4993559;28;20934;-75
2022/01/27 05:07:14;;;;;;;6.70;4.30;;;4.30;99.90;;;;;;4993551;28;20906;-76
2022/01/27 05:09:50;;;;;;;4.93;3.10;;;4.30;99.90;;;;;;4992879;28;20400;-74
2022/01/27 05:12:25;;;;;;;5.00;4.20;;;4.30;99.90;;;;;;4992899;28;20251;-74
2022/01/27 05:14:51;;;;;;;5.20;2.53;;;4.30;99.90;;;;;;4992958;28;20423;-74
2022/01/27 05:17:18;;;;;;;3.57;2.73;;;4.30;99.90;;;;;;4993169;28;20483;-74
2022/01/27 05:19:47;;;;;;;6.33;4.13;;;4.30;99.90;;;;;;4992702;28;20431;-74
2022/01/27 05:22:13;;;;;;;4.83;4.27;;;4.30;99.90;;;;;;4992775;28;20415;-74
2022/01/27 05:24:38;;;;;;;9.13;4.93;;;4.30;99.90;;;;;;4992984;28;20420;-74
2022/01/27 05:27:04;;;;;;;8.80;3.50;;;4.30;99.90;;;;;;4992894;28;20274;-75
2022/01/27 05:29:29;;;;;;;3.30;2.73;;;4.30;99.90;;;;;;4992758;28;20176;-75
2022/01/27 05:31:55;;;;;;;5.00;4.50;;;4.30;99.90;;;;;;4993045;28;20709;-75
2022/01/27 05:34:20;;;;;;;3.57;3.00;;;4.30;99.90;;;;;;4992948;28;20189;-74
2022/01/27 05:36:46;;;;;;;3.17;2.87;;;4.30;99.90;;;;;;4992994;28;20176;-75
2022/01/27 05:39:12;;;;;;;4.47;3.40;;;4.30;99.90;;;;;;4993871;28;20200;-74
2022/01/27 05:41:38;;;;;;;4.93;3.90;;;4.30;99.90;;;;;;4994862;28;20177;-74
2022/01/27 05:44:03;;;;;;;5.13;3.40;;;4.30;99.90;;;;;;4992749;28;20901;-74
2022/01/27 05:46:29;;;;;;;5.30;4.63;;;4.30;99.90;;;;;;4992880;28;20710;-74
2022/01/27 05:48:54;;;;;;;3.63;3.27;;;4.30;99.90;;;;;;4992612;28;20215;-74
2022/01/27 05:51:21;;;;;;;3.53;3.23;;;4.30;99.90;;;;;;4991612;28;20255;-74
2022/01/27 05:53:46;;;;;;;5.23;4.20;;;4.30;99.90;;;;;;4993137;28;20169;-74
2022/01/27 05:56:12;;;;;;;4.43;3.33;;;4.30;99.90;;;;;;4993064;28;20447;-75
2022/01/27 05:58:37;;;;;;;6.80;2.77;;;4.30;99.90;;;;;;4992648;28;20412;-74
2022/01/27 06:01:03;;;;;;;8.50;3.37;;;4.30;99.90;;;;;;4992280;28;20173;-74
2022/01/27 06:03:29;;;;;;;8.63;3.47;;;4.30;99.90;;;;;;4992729;28;20218;-75
2022/01/27 06:05:54;;;;;;;6.03;3.70;;;4.20;99.90;;;;;;4992455;28;20709;-74
2022/01/27 06:08:20;;;;;;;6.47;4.37;;;4.20;99.90;;;;;;4992518;28;20690;-74
2022/01/27 06:10:45;;;;;;;5.80;4.03;;;4.20;99.90;;;;;;4992020;28;20168;-75
2022/01/27 06:13:11;;;;;;;4.20;3.70;;;4.20;99.90;;;;;;4992182;28;20184;-75
2022/01/27 06:15:36;;;;;;;6.97;3.73;;;4.20;99.90;;;;;;4992237;28;20267;-75
2022/01/27 06:18:02;;;;;;;2.93;2.43;;;4.10;99.90;;;;;;4992545;28;20180;-75
2022/01/27 06:20:31;;;;;;;5.70;4.67;;;4.10;99.90;;;;;;4992178;28;20168;-75
2022/01/27 06:22:57;;;;;;;6.67;3.80;;;4.00;99.90;;;;;;4992345;28;20192;-75
2022/01/27 06:25:24;;;;;;;7.77;4.13;;;4.00;99.90;;;;;;4992188;28;20804;-75
2022/01/27 06:27:49;;;;;;;6.53;3.70;;;4.10;99.90;;;;;;5007424;28;20482;-73
2022/01/27 06:30:15;;;;;;;4.77;4.27;;;4.00;99.90;;;;;;4991997;28;20906;-74
2022/01/27 06:32:41;;;;;;;11.03;5.40;;;4.00;99.90;;;;;;4992309;28;20569;-74
2022/01/27 06:35:07;;;;;;;8.00;4.97;;;4.10;99.90;;;;;;4992571;28;20216;-75
2022/01/27 06:37:33;;;;;;;5.00;4.53;;;4.00;99.90;;;;;;4992403;28;20519;-75
2022/01/27 06:39:59;;;;;;;6.63;4.17;;;4.10;99.90;;;;;;4992169;28;20495;-75
2022/01/27 06:42:25;;;;;;;5.13;4.63;;;4.10;99.90;;;;;;4992226;28;20860;-75
2022/01/27 06:44:51;;;;;;;7.03;6.43;;;4.10;99.90;;;;;;4992066;28;20518;-75
2022/01/27 06:47:17;;;;;;;5.87;4.80;;;4.10;99.90;;;;;;4992306;28;20487;-75
2022/01/27 06:49:42;;;;;;;6.90;4.40;;;4.10;99.90;;;;;;4991580;28;20646;-76
2022/01/27 06:52:08;;;;;;;5.23;2.90;;;4.10;99.90;;;;;;4991872;28;20204;-75
2022/01/27 06:54:34;;;;;;;8.53;6.70;;;4.10;99.90;;;;;;4991790;28;20251;-75
2022/01/27 06:57:00;;;;;;;7.47;5.20;;;4.10;99.90;;;;;;5040297;23;20230;-73
2022/01/27 06:59:26;;;;;;;9.93;5.23;;;4.20;99.90;;;;;;5011715;28;20160;-72
2022/01/27 07:01:51;;;;;;;11.03;6.73;;;4.20;99.90;;;;;;5011790;28;20451;-73
2022/01/27 07:04:17;;;;;;;9.83;7.40;;;4.10;99.90;;;;;;5013802;28;20222;-73
2022/01/27 07:06:42;;;;;;;10.40;7.07;;;4.10;99.90;;;;;;5015475;28;20200;-73
2022/01/27 07:09:08;;;;;;;7.03;5.30;;;4.20;99.90;;;;;;5015582;28;20169;-73
2022/01/27 07:11:34;;;;;;;11.70;7.07;;;4.20;99.90;;;;;;5015492;28;20204;-72
2022/01/27 07:13:59;;;;;;;14.20;7.33;;;4.20;99.90;;;;;;5015129;28;20179;-74
2022/01/27 07:16:25;;;;;;;11.20;8.20;;;4.20;99.90;;;;;;5015269;28;20250;-72
2022/01/27 07:18:52;;;;;;;8.90;6.57;;;4.10;99.90;;;;;;5015101;28;20605;-73
2022/01/27 07:21:18;;;;;;;10.17;7.07;;;4.10;99.90;;;;;;5015924;28;20261;-74
2022/01/27 07:23:44;;;;;;;12.83;8.97;;;4.10;99.90;;;;;;5016228;28;20439;-73
2022/01/27 07:26:09;;;;;;;8.13;5.73;;;4.10;99.90;;;;;;5017020;28;20819;-74
2022/01/27 07:28:38;;;;;;;13.77;7.13;;;4.10;99.90;;;;;;5017421;28;20255;-73
2022/01/27 07:31:03;;;;;;;23.70;9.20;;;4.10;99.90;;;;;;5015108;28;20288;-74
2022/01/27 07:33:29;;;;;;;8.53;6.27;;;4.10;99.90;;;;;;5015294;28;20436;-73
2022/01/27 07:35:54;;;;;;;13.47;8.03;;;4.10;99.90;;;;;;5015851;28;20184;-73
2022/01/27 07:38:23;;;;;;;11.37;6.50;;;4.10;99.90;;;;;;5015827;28;20180;-74
2022/01/27 07:40:48;;;;;;;13.47;9.10;;;4.10;99.90;;;;;;5016059;28;20630;-73
2022/01/27 07:43:14;;;;;;;12.83;8.80;;;4.10;99.90;;;;;;4998249;28;20518;-73
2022/01/27 07:45:39;;;;;;;9.67;7.37;;;4.10;99.90;;;;;;5016073;28;20184;-74
2022/01/27 07:48:05;;;;;;;12.60;8.87;;;4.10;99.90;;;;;;5016194;28;20238;-73
2022/01/27 07:50:31;;;;;;;17.87;8.93;;;4.10;99.90;;;;;;5016858;28;21175;-74
2022/01/27 07:52:57;;;;;;;12.27;8.80;;;4.10;99.90;;;;;;5016627;28;20200;-74
2022/01/27 07:55:22;;;;;;;13.70;7.70;;;4.10;99.90;;;;;;5017292;28;20176;-75
2022/01/27 07:57:48;;;;;;;18.03;9.33;;;4.10;99.90;;;;;;5014987;28;20184;-74
2022/01/27 08:00:15;;;;;;;15.10;8.47;;;4.10;99.90;;;;;;5014413;28;20164;-75
2022/01/27 08:02:40;;;;;;;10.40;6.33;;;4.10;99.90;;;;;;5014439;28;20457;-73
2022/01/27 08:05:06;;;;;;;15.40;8.73;;;4.00;99.90;;;;;;5014698;28;20411;-74
2022/01/27 08:07:32;;;;;;;21.87;7.93;;;4.00;99.90;;;;;;5014491;28;20861;-74
2022/01/27 08:09:57;;;;;;;10.23;8.53;;;4.00;99.90;;;;;;5014511;28;20223;-73
2022/01/27 08:12:23;;;;;;;13.67;8.37;;;4.00;99.90;;;;;;5014161;28;20200;-74
2022/01/27 08:14:48;;;;;;;10.80;7.97;;;4.00;99.90;;;;;;5015708;28;20172;-74
2022/01/27 08:17:16;;;;;;;10.90;8.17;;;4.00;99.90;;;;;;5020906;28;20192;-74
2022/01/27 08:19:42;;;;;;;13.60;10.30;;;4.10;99.90;;;;;;5003040;28;20177;-75
2022/01/27 08:22:08;;;;;;;13.63;9.20;;;4.10;99.90;;;;;;5021665;28;20415;-73
2022/01/27 08:24:34;;;;;;;18.03;7.53;;;4.10;99.90;;;;;;5002018;28;20204;-74
2022/01/27 08:27:03;;;;;;;9.77;6.80;;;4.00;99.90;;;;;;5014077;28;20419;-73
2022/01/27 08:29:36;;;;;;;11.57;7.37;;;4.00;99.90;;;;;;5013831;28;20466;-74
2022/01/27 08:32:02;;;;;;;13.53;8.90;;;4.10;99.90;;;;;;5013722;28;20845;-72
2022/01/27 08:34:37;;;;;;;12.50;6.33;;;4.00;99.90;;;;;;5013940;28;20454;-72
2022/01/27 08:37:13;;;;;;;19.73;9.70;;;4.00;99.90;;;;;;5013654;28;20941;-72
2022/01/27 08:39:39;;;;;;;11.87;7.73;;;4.00;99.90;;;;;;5013677;28;20458;-72
2022/01/27 08:42:06;;;;;;;17.83;9.07;;;4.00;99.90;;;;;;5013324;28;20498;-73
2022/01/27 08:44:32;;;;;;;12.03;8.13;;;3.90;99.90;;;;;;5013218;28;20918;-72
2022/01/27 08:46:58;;;;;;;16.83;9.00;;;3.90;99.90;;;;;;5013419;28;20438;-73
2022/01/27 08:49:26;;;;;;;9.87;7.40;;;3.90;99.90;;;;;;5013054;28;20173;-73
2022/01/27 08:51:52;;;;;;;25.83;11.53;;;3.90;99.90;;;;;;5013161;28;20192;-72
2022/01/27 08:54:17;;;;;;;11.90;7.10;;;3.90;99.90;;;;;;5013306;28;20998;-74
2022/01/27 08:56:44;;;;;;;17.87;9.77;;;4.00;99.90;;;;;;5013172;28;20541;-73
2022/01/27 08:59:10;;;;;;;13.20;6.40;;;4.00;99.90;;;;;;5013724;28;20506;-72
2022/01/27 09:01:36;;;;;;;13.33;8.90;;;4.00;99.90;;;;;;5013271;28;20415;-76
2022/01/27 09:04:03;;;;;;;8.97;7.43;;;4.10;99.90;;;;;;5013326;28;20199;-73
2022/01/27 09:06:29;;;;;;;16.67;6.70;;;4.10;99.90;;;;;;5013239;28;20423;-73
2022/01/27 09:08:55;;;;;;;15.93;8.40;;;4.10;99.90;;;;;;5013034;28;20422;-74
2022/01/27 09:11:21;;;;;;;10.47;6.60;;;4.10;99.90;;;;;;5013213;28;20196;-73
2022/01/27 09:13:46;;;;;;;14.93;5.80;;;4.10;99.90;;;;;;5013836;28;20402;-73
2022/01/27 09:16:12;;;;;;;15.87;7.47;;;4.20;99.90;;;;;;5015086;28;20423;-73
2022/01/27 09:18:38;;;;;;;14.77;9.50;;;4.20;99.90;;;;;;5018938;28;20168;-73
2022/01/27 09:21:09;;;;;;;8.87;6.33;;;4.20;99.90;;;;;;5014023;28;20172;-73
2022/01/27 09:23:35;;;;;;;9.97;8.07;;;4.20;99.90;;;;;;5014832;28;20251;-73
2022/01/27 09:26:05;;;;;;;19.57;8.13;;;4.20;99.90;;;;;;5013854;28;20529;-74
2022/01/27 09:28:33;;;;;;;12.77;6.77;;;4.20;99.90;;;;;;5016090;28;20407;-74
2022/01/27 09:31:01;;;;;;;16.67;8.43;;;4.20;99.90;;;;;;5024430;28;20438;-73
2022/01/27 09:33:28;;;;;;;8.03;5.50;;;4.40;99.90;;;;;;5022176;28;20444;-73
2022/01/27 09:35:54;;;;;;;11.37;7.30;;;4.50;99.90;;;;;;5018905;28;20434;-73
2022/01/27 09:38:20;;;;;;;12.93;7.47;;;4.60;99.90;;;;;;5001665;28;20412;-74
2022/01/27 09:40:49;;;;;;;9.00;6.60;;;4.40;99.90;;;;;;5015039;28;20395;-72
2022/01/27 09:43:15;;;;;;;14.87;7.67;;;4.60;99.90;;;;;;5013671;28;20795;-74
2022/01/27 09:45:41;;;;;;;16.77;6.97;;;4.30;99.90;;;;;;5015034;28;20431;-74
2022/01/27 09:48:15;;;;;;;12.40;7.63;;;4.30;99.90;;;;;;5014786;28;20226;-73
2022/01/27 09:50:49;;;;;;;15.83;7.30;;;4.30;99.90;;;;;;5014889;28;20414;-74
2022/01/27 09:53:16;;;;;;;9.00;5.40;;;4.30;99.90;;;;;;4997486;28;20447;-74
2022/01/27 09:55:42;;;;;;;12.93;5.87;;;4.30;99.90;;;;;;5016655;28;20415;-73
2022/01/27 09:58:08;;;;;;;9.33;5.33;;;4.30;99.90;;;;;;5014710;28;20756;-73
2022/01/27 10:00:35;;;;;;;10.43;6.50;;;4.10;99.90;;;;;;4997572;28;20478;-73
2022/01/27 10:03:03;;;;;;;12.40;4.53;;;4.10;99.90;;;;;;5017524;28;20792;-72
2022/01/27 10:05:29;;;;;;;4.70;4.23;;;4.10;99.90;;;;;;5023892;28;20799;-72
2022/01/27 10:08:05;;;;;;;9.63;6.67;;;3.90;99.90;;;;;;5015557;28;20433;-72
2022/01/27 10:10:39;;;;;;;11.47;6.57;;;3.90;99.90;;;;;;5020148;28;20246;-73
2022/01/27 10:13:07;;;;;;;11.90;6.77;;;4.00;99.90;;;;;;4996735;28;20485;-75
2022/01/27 10:15:40;;;;;;;5.20;4.47;;;3.90;99.90;;;;;;4997291;28;20420;-74
2022/01/27 10:18:18;;;;;;;9.93;6.77;;;3.90;99.90;;;;;;5013878;28;20418;-72
2022/01/27 10:20:57;;;;;;;13.70;6.50;;;3.80;99.90;;;;;;5013954;28;20494;-74
2022/01/27 10:23:33;;;;;;;5.40;4.90;;;3.60;99.90;;;;;;5013785;28;20415;-72
2022/01/27 10:26:13;;;;;;;10.53;5.70;;;3.60;99.90;;;;;;5014428;28;20514;-73
2022/01/27 10:28:59;;;;;;;7.30;5.67;;;3.60;99.90;;;;;;5013687;28;20399;-74
2022/01/27 10:31:26;;;;;;;10.90;5.97;;;3.70;99.90;;;;;;5012156;28;20477;-73
2022/01/27 10:33:58;;;;;;;16.17;7.53;;;3.70;99.90;;;;;;5011679;28;20419;-73
2022/01/27 10:36:26;;;;;;;19.83;7.93;;;3.70;99.90;;;;;;5013551;28;20443;-72
2022/01/27 10:39:02;;;;;;;15.60;9.17;;;3.70;99.90;;;;;;5014573;28;20399;-74
2022/01/27 10:41:29;;;;;;;18.43;8.03;;;3.70;99.90;;;;;;5017343;28;20403;-73
2022/01/27 10:44:16;;;;;;;6.00;5.40;;;3.70;99.90;;;;;;4999378;28;20415;-73
2022/01/27 10:47:07;;;;;;;12.53;5.13;;;3.70;99.90;;;;;;5017409;28;20430;-73
2022/01/27 10:49:37;;;;;;;10.10;6.33;;;3.80;99.90;;;;;;5017216;28;20483;-75
2022/01/27 10:52:03;;;;;;;8.10;5.07;;;3.70;99.90;;;;;;5017061;28;20528;-73
2022/01/27 10:57:02;;;;;;;9.27;5.17;;;3.70;99.90;;;;;;5016975;28;20478;-74
2022/01/27 10:59:32;;;;;;;9.00;7.10;;;3.70;99.90;;;;;;5016774;28;20403;-74
2022/01/27 11:01:58;;;;;;;11.00;7.37;;;3.80;99.90;;;;;;5017312;28;20410;-75
2022/01/27 11:04:33;;;;;;;14.77;9.60;;;3.70;99.90;;;;;;5016882;28;20419;-74
2022/01/27 11:07:01;;;;;;;13.83;6.17;;;3.70;99.90;;;;;;5017331;28;20426;-74
2022/01/27 11:09:33;;;;;;;11.70;6.77;;;3.70;99.90;;;;;;5016357;28;20947;-74
2022/01/27 11:11:59;;;;;;;10.20;6.20;;;3.70;99.90;;;;;;5016304;28;20534;-73
2022/01/27 11:14:25;;;;;;;14.63;4.90;;;3.90;99.90;;;;;;5016406;28;20403;-75
2022/01/27 11:16:56;;;;;;;8.27;5.83;;;3.90;99.90;;;;;;5016458;28;20510;-74
2022/01/27 11:22:39;;;;;;;12.13;6.20;;;3.80;99.90;;;;;;5016498;28;20414;-74
2022/01/27 11:27:43;;;;;;;10.50;5.10;;;3.90;99.90;;;;;;5016093;28;20419;-73
2022/01/27 11:30:21;;;;;;;9.00;6.07;;;3.90;99.90;;;;;;5016022;28;20902;-74
2022/01/27 11:33:10;;;;;;;24.77;5.73;;;3.80;99.90;;;;;;5015928;28;21038;-75
2022/01/27 11:35:36;;;;;;;7.57;5.50;;;3.90;99.90;;;;;;5016158;28;20407;-74
2022/01/27 11:38:04;;;;;;;21.00;7.10;;;3.90;99.90;;;;;;5016087;28;20427;-75
2022/01/27 11:40:41;;;;;;;9.73;5.70;;;3.90;99.90;;;;;;5015605;28;20403;-74
2022/01/27 11:43:15;;;;;;;7.63;5.47;;;3.90;99.90;;;;;;5016258;28;20412;-74
2022/01/27 11:45:45;;;;;;;10.27;5.63;;;3.90;99.90;;;;;;5020627;28;20423;-75
2022/01/27 11:48:22;;;;;;;7.17;4.67;;;3.90;99.90;;;;;;5017072;28;20407;-75
2022/01/27 11:50:55;;;;;;;10.27;4.70;;;3.90;99.90;;;;;;5017376;28;20481;-73
2022/01/27 11:53:43;;;;;;;8.60;6.27;;;4.00;99.90;;;;;;5017180;28;20403;-72
2022/01/27 11:56:15;;;;;;;8.60;5.30;;;4.00;99.90;;;;;;5016661;28;20498;-72
2022/01/27 11:58:47;;;;;;;11.17;6.07;;;4.10;99.90;;;;;;5017092;28;20486;-74
2022/01/27 12:01:25;;;;;;;7.33;5.50;;;4.00;99.90;;;;;;4998536;28;20427;-72
2022/01/27 12:04:07;;;;;;;9.40;5.33;;;4.00;99.90;;;;;;5016290;28;20421;-71
2022/01/27 12:06:48;;;;;;;10.13;5.00;;;4.10;99.90;;;;;;5015793;28;20419;-72
2022/01/27 12:09:22;;;;;;;5.30;3.97;;;4.10;99.90;;;;;;5017848;28;20418;-72
2022/01/27 12:11:55;;;;;;;7.83;5.90;;;4.10;99.90;;;;;;5019350;28;20469;-72
2022/01/27 12:14:26;;;;;;;9.73;6.00;;;4.20;99.90;;;;;;5022460;28;20916;-71
2022/01/27 12:17:07;;;;;;;7.93;4.60;;;4.20;99.90;;;;;;5003962;28;20432;-72
2022/01/27 12:19:45;;;;;;;12.17;4.93;;;4.30;99.90;;;;;;5018506;28;20490;-72
2022/01/27 12:22:11;;;;;;;8.23;3.27;;;4.30;99.90;;;;;;5020112;28;20407;-71
2022/01/27 12:24:53;;;;;;;13.07;6.20;;;4.40;99.90;;;;;;5015067;28;20499;-71
2022/01/27 12:27:20;;;;;;;8.90;5.50;;;4.30;99.90;;;;;;5014420;28;20423;-70
2022/01/27 12:29:51;;;;;;;8.43;4.77;;;4.30;99.90;;;;;;5014496;28;20434;-72
2022/01/27 12:32:16;;;;;;;10.23;4.70;;;4.30;99.90;;;;;;5014410;28;20459;-72
2022/01/27 12:34:46;;;;;;;12.90;6.33;;;4.30;99.90;;;;;;5014789;28;20550;-72
2022/01/27 12:37:12;;;;;;;5.03;4.07;;;4.30;99.90;;;;;;5014630;28;20176;-72
2022/01/27 12:39:44;;;;;;;10.57;5.80;;;4.40;99.90;;;;;;5014868;28;20898;-72
2022/01/27 12:42:13;;;;;;;6.13;5.47;;;4.50;99.90;;;;;;4996718;28;20426;-72
2022/01/27 12:44:43;;;;;;;10.90;4.93;;;4.50;99.90;;;;;;5014840;28;20412;-73
2022/01/27 12:47:15;;;;;;;8.97;4.90;;;4.50;99.90;;;;;;5016572;28;20455;-76
2022/01/27 12:49:45;;;;;;;5.10;3.43;;;4.40;99.90;;;;;;5007681;28;20477;-73
2022/01/27 12:52:15;;;;;;;5.43;4.20;;;4.40;99.90;;;;;;5014118;28;20451;-73
2022/01/27 12:54:41;;;;;;;10.83;4.73;;;4.50;99.90;;;;;;5013837;28;20496;-72
2022/01/27 12:57:07;;;;;;;10.60;4.13;;;4.40;99.90;;;;;;5019633;22;20498;-68
2022/01/27 12:59:42;;;;;;;9.17;5.43;;;4.40;99.90;;;;;;4990785;28;20440;-70
2022/01/27 13:02:10;;;;;;;5.80;3.27;;;4.50;99.90;;;;;;4993518;28;20471;-68
2022/01/27 13:04:37;;;;;;;5.10;4.60;;;4.50;99.90;;;;;;4990421;28;20427;-68
2022/01/27 13:07:04;;;;;;;10.30;5.10;;;4.50;99.90;;;;;;4992606;28;20442;-67
2022/01/27 13:09:32;;;;;;;5.93;3.03;;;4.60;99.90;;;;;;4984280;28;20910;-68
2022/01/27 13:12:09;;;;;;;7.20;5.20;;;4.60;99.90;;;;;;4979995;28;20463;-68
2022/01/27 13:14:46;;;;;;;6.93;4.60;;;4.70;99.90;;;;;;4972086;28;20420;-68
2022/01/27 13:17:19;;;;;;;8.73;4.77;;;4.60;99.90;;;;;;4971057;28;20611;-69
2022/01/27 13:19:48;;;;;;;7.53;4.07;;;4.70;99.90;;;;;;4973421;28;20464;-69
2022/01/27 13:22:16;;;;;;;10.80;4.80;;;4.80;99.90;;;;;;4973935;28;20437;-69
2022/01/27 13:24:50;;;;;;;6.83;4.60;;;4.80;99.90;;;;;;4974482;28;20433;-68
2022/01/27 13:27:16;;;;;;;7.23;5.67;;;4.90;99.90;;;;;;4960268;28;20934;-69
2022/01/27 13:29:44;;;;;;;4.47;4.07;;;4.90;99.90;;;;;;4976304;28;20428;-68
2022/01/27 13:32:10;;;;;;;9.93;3.80;;;4.90;99.90;;;;;;4974888;28;20259;-69
2022/01/27 13:34:42;;;;;;;5.27;2.97;;;5.00;99.90;;;;;;4965358;28;20418;-70
2022/01/27 13:37:08;;;;;;;5.67;4.20;;;5.00;99.90;;;;;;4971172;28;20820;-68
2022/01/27 13:42:16;;;;;;;18.13;3.00;;;5.10;99.90;;;;;;4973725;28;20185;-68
2022/01/27 13:44:55;;;;;;;4.83;3.60;;;5.20;99.90;;;;;;4974025;28;21290;-68